BTK6292 WAAA-WAFW
Flight info
| Callsign | BTK6292 |
|---|---|
| Flight time | 0h 55m |
| Altitude | 31000 |
| Route | VENRU W32 DIOLA DCT LIGLA |
| Aircraft | A320/M-SDE3FGHIRWY/LB1 |
Departure
| Time | 2026-04-20 06:26 |
|---|---|
| Airport | Sultan Hasanuddin International Airport (WAAA) |
Arrival
| Time | 2026-04-20 07:22 |
|---|---|
| Airport | Syukuran Aminuddin Amir Airport (WAFW) |
| Time | Latitude | Longitude | Altitude | Speed | Heading |
|---|---|---|---|---|---|
| 2026-04-20 05:51 | -5.07610 | 119.54823 | 41 ft | 0 kts | 300° |
| 2026-04-20 06:18 | -5.07614 | 119.54831 | 41 ft | 4 kts | 301° |
| 2026-04-20 06:18 | -5.07630 | 119.54854 | 41 ft | 4 kts | 311° |
| 2026-04-20 06:18 | -5.07649 | 119.54871 | 40 ft | 4 kts | 338° |
| 2026-04-20 06:19 | -5.07670 | 119.54873 | 41 ft | 1 kts | 30° |
| 2026-04-20 06:19 | -5.07674 | 119.54870 | 39 ft | 0 kts | 30° |
| 2026-04-20 06:21 | -5.07655 | 119.54881 | 41 ft | 5 kts | 30° |
| 2026-04-20 06:22 | -5.07618 | 119.54903 | 39 ft | 8 kts | 30° |
| 2026-04-20 06:22 | -5.07586 | 119.54965 | 41 ft | 13 kts | 80° |
| 2026-04-20 06:22 | -5.07605 | 119.55054 | 41 ft | 12 kts | 117° |
| 2026-04-20 06:22 | -5.07608 | 119.55126 | 41 ft | 10 kts | 55° |
| 2026-04-20 06:23 | -5.07549 | 119.55169 | 41 ft | 13 kts | 30° |
| 2026-04-20 06:23 | -5.07471 | 119.55214 | 40 ft | 12 kts | 30° |
| 2026-04-20 06:23 | -5.07384 | 119.55265 | 40 ft | 19 kts | 30° |
| 2026-04-20 06:23 | -5.07250 | 119.55341 | 40 ft | 23 kts | 30° |
| 2026-04-20 06:24 | -5.07105 | 119.55425 | 41 ft | 25 kts | 30° |
| 2026-04-20 06:24 | -5.06952 | 119.55513 | 41 ft | 26 kts | 30° |
| 2026-04-20 06:24 | -5.06797 | 119.55602 | 39 ft | 25 kts | 30° |
| 2026-04-20 06:24 | -5.06677 | 119.55673 | 40 ft | 14 kts | 43° |
| 2026-04-20 06:25 | -5.06682 | 119.55752 | 41 ft | 11 kts | 126° |
| 2026-04-20 06:25 | -5.06733 | 119.55811 | 42 ft | 13 kts | 134° |
| 2026-04-20 06:25 | -5.06794 | 119.55808 | 40 ft | 2 kts | 209° |
| 2026-04-20 06:25 | -5.06835 | 119.55785 | 39 ft | 21 kts | 209° |
| 2026-04-20 06:26 | -5.07184 | 119.55583 | 39 ft | 93 kts | 210° |
| 2026-04-20 06:26 | -5.07905 | 119.55165 | 41 ft | 147 kts | 210° |
| 2026-04-20 06:26 | -5.08905 | 119.54588 | 259 ft | 174 kts | 211° |
| 2026-04-20 06:26 | -5.09971 | 119.53974 | 951 ft | 174 kts | 212° |
| 2026-04-20 06:27 | -5.11015 | 119.53372 | 1724 ft | 172 kts | 213° |
| 2026-04-20 06:27 | -5.12079 | 119.52757 | 2198 ft | 185 kts | 212° |
| 2026-04-20 06:27 | -5.13250 | 119.52101 | 2425 ft | 208 kts | 204° |
| 2026-04-20 06:27 | -5.14758 | 119.51786 | 2733 ft | 232 kts | 180° |
| 2026-04-20 06:28 | -5.16431 | 119.51798 | 3111 ft | 256 kts | 179° |
| 2026-04-20 06:28 | -5.18263 | 119.51932 | 3686 ft | 270 kts | 165° |
| 2026-04-20 06:28 | -5.19942 | 119.52769 | 4489 ft | 272 kts | 138° |
| 2026-04-20 06:28 | -5.21074 | 119.54278 | 5338 ft | 273 kts | 111° |
| 2026-04-20 06:29 | -5.21420 | 119.56144 | 6173 ft | 276 kts | 90° |
| 2026-04-20 06:29 | -5.21423 | 119.58075 | 7023 ft | 278 kts | 90° |
| 2026-04-20 06:29 | -5.21421 | 119.60025 | 7824 ft | 281 kts | 90° |
| 2026-04-20 06:29 | -5.21422 | 119.62000 | 8590 ft | 285 kts | 90° |
| 2026-04-20 06:30 | -5.21428 | 119.64004 | 9338 ft | 289 kts | 90° |
| 2026-04-20 06:30 | -5.21438 | 119.66035 | 10090 ft | 293 kts | 91° |
| 2026-04-20 06:30 | -5.21451 | 119.68097 | 10693 ft | 302 kts | 91° |
| 2026-04-20 06:30 | -5.21465 | 119.70281 | 10883 ft | 324 kts | 91° |
| 2026-04-20 06:31 | -5.21480 | 119.72626 | 11062 ft | 346 kts | 91° |
| 2026-04-20 06:31 | -5.21495 | 119.75073 | 11536 ft | 355 kts | 90° |
| 2026-04-20 06:31 | -5.21508 | 119.77564 | 12142 ft | 359 kts | 91° |
| 2026-04-20 06:31 | -5.21540 | 119.80054 | 12756 ft | 363 kts | 92° |
| 2026-04-20 06:32 | -5.21617 | 119.82594 | 13378 ft | 367 kts | 92° |
| 2026-04-20 06:32 | -5.21723 | 119.85164 | 14000 ft | 370 kts | 93° |
| 2026-04-20 06:32 | -5.21837 | 119.87751 | 14605 ft | 373 kts | 93° |
| 2026-04-20 06:32 | -5.21953 | 119.90359 | 15185 ft | 376 kts | 93° |
| 2026-04-20 06:33 | -5.22066 | 119.92990 | 15749 ft | 379 kts | 93° |
| 2026-04-20 06:33 | -5.22174 | 119.95640 | 16299 ft | 382 kts | 93° |
| 2026-04-20 06:33 | -5.22276 | 119.98309 | 16853 ft | 384 kts | 93° |
| 2026-04-20 06:33 | -5.22374 | 120.00997 | 17372 ft | 387 kts | 93° |
| 2026-04-20 06:34 | -5.22471 | 120.03703 | 17870 ft | 389 kts | 93° |
| 2026-04-20 06:34 | -5.22571 | 120.06426 | 18362 ft | 392 kts | 93° |
| 2026-04-20 06:34 | -5.22775 | 120.11936 | 19259 ft | 399 kts | 93° |
| 2026-04-20 06:35 | -5.22874 | 120.14726 | 19675 ft | 402 kts | 93° |
| 2026-04-20 06:35 | -5.22863 | 120.17543 | 20077 ft | 406 kts | 86° |
| 2026-04-20 06:35 | -5.22365 | 120.20346 | 20474 ft | 411 kts | 75° |
| 2026-04-20 06:35 | -5.21378 | 120.23051 | 20871 ft | 415 kts | 69° |
| 2026-04-20 06:36 | -5.20279 | 120.25741 | 21251 ft | 418 kts | 69° |
| 2026-04-20 06:36 | -5.19174 | 120.28450 | 21628 ft | 421 kts | 69° |
| 2026-04-20 06:36 | -5.18066 | 120.31181 | 21987 ft | 424 kts | 69° |
| 2026-04-20 06:36 | -5.16955 | 120.33932 | 22333 ft | 427 kts | 69° |
| 2026-04-20 06:37 | -5.15836 | 120.36702 | 22684 ft | 430 kts | 69° |
| 2026-04-20 06:37 | -5.14711 | 120.39489 | 23005 ft | 433 kts | 68° |
| 2026-04-20 06:37 | -5.13577 | 120.42293 | 23337 ft | 435 kts | 69° |
| 2026-04-20 06:37 | -5.12432 | 120.45116 | 23645 ft | 438 kts | 68° |
| 2026-04-20 06:38 | -5.11275 | 120.47953 | 23948 ft | 441 kts | 67° |
| 2026-04-20 06:38 | -5.09825 | 120.50670 | 24253 ft | 444 kts | 57° |
| 2026-04-20 06:38 | -5.07922 | 120.53116 | 24561 ft | 446 kts | 47° |
| 2026-04-20 06:38 | -5.05791 | 120.55387 | 24888 ft | 448 kts | 47° |
| 2026-04-20 06:39 | -5.03689 | 120.57637 | 25213 ft | 449 kts | 47° |
| 2026-04-20 06:39 | -5.01526 | 120.59962 | 25550 ft | 450 kts | 47° |
| 2026-04-20 06:39 | -4.99421 | 120.62229 | 25855 ft | 451 kts | 47° |
| 2026-04-20 06:39 | -4.97249 | 120.64567 | 26162 ft | 452 kts | 47° |
| 2026-04-20 06:40 | -4.95132 | 120.66844 | 26461 ft | 453 kts | 47° |
| 2026-04-20 06:40 | -4.92982 | 120.69162 | 26758 ft | 454 kts | 47° |
| 2026-04-20 06:40 | -4.90824 | 120.71483 | 27057 ft | 455 kts | 47° |
| 2026-04-20 06:40 | -4.88659 | 120.73807 | 27347 ft | 457 kts | 47° |
| 2026-04-20 06:41 | -4.86487 | 120.76142 | 27634 ft | 457 kts | 47° |
| 2026-04-20 06:41 | -4.84314 | 120.78477 | 27909 ft | 459 kts | 47° |
| 2026-04-20 06:41 | -4.82134 | 120.80817 | 28179 ft | 460 kts | 47° |
| 2026-04-20 06:41 | -4.79950 | 120.83164 | 28441 ft | 461 kts | 47° |
| 2026-04-20 06:42 | -4.77761 | 120.85516 | 28708 ft | 462 kts | 48° |
| 2026-04-20 06:42 | -4.75570 | 120.87873 | 28977 ft | 462 kts | 48° |
| 2026-04-20 06:42 | -4.73376 | 120.90233 | 29224 ft | 463 kts | 48° |
| 2026-04-20 06:42 | -4.71176 | 120.92596 | 29467 ft | 464 kts | 48° |
| 2026-04-20 06:43 | -4.68969 | 120.94962 | 29711 ft | 465 kts | 48° |
| 2026-04-20 06:43 | -4.66759 | 120.97333 | 29942 ft | 466 kts | 48° |
| 2026-04-20 06:43 | -4.64437 | 120.99601 | 30204 ft | 467 kts | 40° |
| 2026-04-20 06:43 | -4.61753 | 121.01437 | 30524 ft | 468 kts | 30° |
| 2026-04-20 06:44 | -4.58777 | 121.02762 | 30775 ft | 470 kts | 20° |
| 2026-04-20 06:44 | -4.55609 | 121.03521 | 30836 ft | 467 kts | 9° |
| 2026-04-20 06:44 | -4.52378 | 121.03766 | 30840 ft | 465 kts | 5° |
| 2026-04-20 06:45 | -4.45932 | 121.04110 | 30840 ft | 463 kts | 5° |
| 2026-04-20 06:45 | -4.39499 | 121.04471 | 30842 ft | 463 kts | 5° |
| 2026-04-20 06:46 | -4.33064 | 121.04841 | 30842 ft | 463 kts | 5° |
| 2026-04-20 06:46 | -4.26629 | 121.05212 | 30840 ft | 463 kts | 5° |
| 2026-04-20 06:47 | -4.20243 | 121.05570 | 30835 ft | 463 kts | 5° |
| 2026-04-20 06:47 | -4.13816 | 121.05934 | 30833 ft | 462 kts | 5° |
| 2026-04-20 06:48 | -4.07393 | 121.06303 | 30829 ft | 462 kts | 5° |
| 2026-04-20 06:48 | -4.00968 | 121.06666 | 30828 ft | 462 kts | 5° |
| 2026-04-20 06:49 | -3.94537 | 121.07027 | 30826 ft | 462 kts | 5° |
| 2026-04-20 06:49 | -3.88117 | 121.07395 | 30824 ft | 462 kts | 5° |
| 2026-04-20 06:50 | -3.81688 | 121.07755 | 30822 ft | 463 kts | 5° |
| 2026-04-20 06:50 | -3.75257 | 121.08110 | 30824 ft | 463 kts | 5° |
| 2026-04-20 06:51 | -3.68827 | 121.08481 | 30828 ft | 463 kts | 5° |
| 2026-04-20 06:51 | -3.62390 | 121.08854 | 30830 ft | 463 kts | 5° |
| 2026-04-20 06:52 | -3.55968 | 121.09209 | 30833 ft | 463 kts | 5° |
| 2026-04-20 06:52 | -3.50621 | 121.09503 | 30832 ft | 462 kts | 5° |
| 2026-04-20 06:53 | -3.43155 | 121.09924 | 30829 ft | 462 kts | 5° |
| 2026-04-20 06:53 | -3.36731 | 121.10294 | 30831 ft | 462 kts | 5° |
| 2026-04-20 06:54 | -3.31350 | 121.10598 | 30831 ft | 462 kts | 5° |
| 2026-04-20 06:54 | -3.24971 | 121.10959 | 30829 ft | 462 kts | 5° |
| 2026-04-20 06:55 | -3.18540 | 121.11326 | 30830 ft | 462 kts | 5° |
| 2026-04-20 06:55 | -3.12184 | 121.12097 | 30829 ft | 459 kts | 18° |
| 2026-04-20 06:56 | -3.06458 | 121.14755 | 30829 ft | 453 kts | 37° |
| 2026-04-20 06:56 | -3.01577 | 121.18720 | 30829 ft | 452 kts | 41° |
| 2026-04-20 06:57 | -2.96712 | 121.22708 | 30827 ft | 452 kts | 41° |
| 2026-04-20 06:57 | -2.91991 | 121.26562 | 30828 ft | 452 kts | 41° |
| 2026-04-20 06:58 | -2.87121 | 121.30555 | 30849 ft | 453 kts | 41° |
| 2026-04-20 06:58 | -2.82245 | 121.34559 | 30851 ft | 454 kts | 41° |
| 2026-04-20 06:59 | -2.77369 | 121.38565 | 30850 ft | 453 kts | 41° |
| 2026-04-20 06:59 | -2.72491 | 121.42564 | 30850 ft | 453 kts | 41° |
| 2026-04-20 07:00 | -2.67611 | 121.46560 | 30857 ft | 453 kts | 41° |
| 2026-04-20 07:00 | -2.62728 | 121.50555 | 30596 ft | 454 kts | 41° |
| 2026-04-20 07:00 | -2.60323 | 121.52529 | 30356 ft | 454 kts | 41° |
| 2026-04-20 07:01 | -2.57883 | 121.54534 | 30112 ft | 454 kts | 41° |
| 2026-04-20 07:01 | -2.55442 | 121.56541 | 29857 ft | 454 kts | 41° |
| 2026-04-20 07:01 | -2.53002 | 121.58548 | 29606 ft | 453 kts | 41° |
| 2026-04-20 07:01 | -2.50566 | 121.60547 | 29356 ft | 453 kts | 40° |
| 2026-04-20 07:02 | -2.48131 | 121.62539 | 29103 ft | 452 kts | 40° |
| 2026-04-20 07:02 | -2.45701 | 121.64527 | 28855 ft | 451 kts | 40° |
| 2026-04-20 07:02 | -2.43273 | 121.66514 | 28603 ft | 450 kts | 40° |
| 2026-04-20 07:02 | -2.40854 | 121.68496 | 28354 ft | 449 kts | 40° |
| 2026-04-20 07:03 | -2.38436 | 121.70470 | 28103 ft | 448 kts | 40° |
| 2026-04-20 07:03 | -2.36019 | 121.72436 | 27852 ft | 448 kts | 40° |
| 2026-04-20 07:03 | -2.33605 | 121.74397 | 27602 ft | 447 kts | 40° |
| 2026-04-20 07:03 | -2.31196 | 121.76354 | 27348 ft | 446 kts | 40° |
| 2026-04-20 07:04 | -2.28791 | 121.78307 | 27095 ft | 445 kts | 40° |
| 2026-04-20 07:04 | -2.26388 | 121.80254 | 26852 ft | 444 kts | 40° |
| 2026-04-20 07:04 | -2.23987 | 121.82198 | 26608 ft | 444 kts | 40° |
| 2026-04-20 07:04 | -2.21594 | 121.84144 | 26350 ft | 443 kts | 40° |
| 2026-04-20 07:05 | -2.19208 | 121.86089 | 26099 ft | 442 kts | 40° |
| 2026-04-20 07:05 | -2.16826 | 121.88028 | 25846 ft | 441 kts | 40° |
| 2026-04-20 07:05 | -2.14463 | 121.89951 | 25303 ft | 436 kts | 40° |
| 2026-04-20 07:05 | -2.12116 | 121.91860 | 24702 ft | 433 kts | 40° |
| 2026-04-20 07:06 | -2.09790 | 121.93749 | 24118 ft | 429 kts | 40° |
| 2026-04-20 07:06 | -2.07482 | 121.95621 | 23546 ft | 426 kts | 40° |
| 2026-04-20 07:06 | -2.05194 | 121.97479 | 23006 ft | 422 kts | 40° |
| 2026-04-20 07:06 | -2.02929 | 121.99321 | 22474 ft | 418 kts | 40° |
| 2026-04-20 07:07 | -2.00682 | 122.01149 | 21991 ft | 414 kts | 40° |
| 2026-04-20 07:07 | -1.98460 | 122.02956 | 21502 ft | 410 kts | 40° |
| 2026-04-20 07:07 | -1.96259 | 122.04745 | 21031 ft | 406 kts | 40° |
| 2026-04-20 07:07 | -1.94108 | 122.06491 | 20575 ft | 402 kts | 40° |
| 2026-04-20 07:08 | -1.91947 | 122.08246 | 20084 ft | 399 kts | 40° |
| 2026-04-20 07:08 | -1.89805 | 122.09989 | 19617 ft | 395 kts | 40° |
| 2026-04-20 07:08 | -1.87679 | 122.11718 | 19136 ft | 393 kts | 40° |
| 2026-04-20 07:08 | -1.85566 | 122.13437 | 18634 ft | 391 kts | 39° |
| 2026-04-20 07:09 | -1.83463 | 122.15145 | 18142 ft | 389 kts | 39° |
| 2026-04-20 07:09 | -1.81368 | 122.16844 | 17634 ft | 387 kts | 39° |
| 2026-04-20 07:09 | -1.79283 | 122.18533 | 17135 ft | 385 kts | 39° |
| 2026-04-20 07:09 | -1.77206 | 122.20218 | 16627 ft | 384 kts | 39° |
| 2026-04-20 07:10 | -1.75138 | 122.21898 | 16122 ft | 382 kts | 39° |
| 2026-04-20 07:10 | -1.73076 | 122.23570 | 15626 ft | 381 kts | 39° |
| 2026-04-20 07:10 | -1.71023 | 122.25235 | 15117 ft | 379 kts | 39° |
| 2026-04-20 07:10 | -1.68981 | 122.26893 | 14633 ft | 377 kts | 39° |
| 2026-04-20 07:11 | -1.66950 | 122.28543 | 14122 ft | 375 kts | 39° |
| 2026-04-20 07:11 | -1.64931 | 122.30189 | 13622 ft | 373 kts | 39° |
| 2026-04-20 07:11 | -1.62925 | 122.31825 | 13115 ft | 371 kts | 39° |
| 2026-04-20 07:11 | -1.60927 | 122.33448 | 12609 ft | 369 kts | 39° |
| 2026-04-20 07:12 | -1.58944 | 122.35057 | 12095 ft | 366 kts | 39° |
| 2026-04-20 07:12 | -1.56973 | 122.36654 | 11579 ft | 363 kts | 39° |
| 2026-04-20 07:12 | -1.55019 | 122.38241 | 11061 ft | 361 kts | 39° |
| 2026-04-20 07:12 | -1.53083 | 122.39813 | 10639 ft | 355 kts | 39° |
| 2026-04-20 07:13 | -1.51190 | 122.41349 | 10413 ft | 344 kts | 39° |
| 2026-04-20 07:13 | -1.49365 | 122.42827 | 10284 ft | 331 kts | 39° |
| 2026-04-20 07:13 | -1.47611 | 122.44249 | 10171 ft | 319 kts | 39° |
| 2026-04-20 07:13 | -1.45914 | 122.45627 | 10036 ft | 309 kts | 39° |
| 2026-04-20 07:14 | -1.44264 | 122.46967 | 9770 ft | 303 kts | 39° |
| 2026-04-20 07:14 | -1.42637 | 122.48288 | 9449 ft | 300 kts | 39° |
| 2026-04-20 07:14 | -1.41024 | 122.49598 | 9089 ft | 298 kts | 39° |
| 2026-04-20 07:14 | -1.39423 | 122.50899 | 8727 ft | 295 kts | 39° |
| 2026-04-20 07:15 | -1.37834 | 122.52188 | 8372 ft | 293 kts | 39° |
| 2026-04-20 07:15 | -1.36257 | 122.53466 | 8017 ft | 291 kts | 39° |
| 2026-04-20 07:15 | -1.34711 | 122.54720 | 7675 ft | 289 kts | 39° |
| 2026-04-20 07:15 | -1.33161 | 122.55980 | 7321 ft | 286 kts | 39° |
| 2026-04-20 07:16 | -1.31602 | 122.57247 | 6949 ft | 283 kts | 39° |
| 2026-04-20 07:16 | -1.30104 | 122.58466 | 6590 ft | 280 kts | 39° |
| 2026-04-20 07:16 | -1.28596 | 122.59689 | 6203 ft | 278 kts | 39° |
| 2026-04-20 07:16 | -1.27106 | 122.60897 | 5818 ft | 271 kts | 39° |
| 2026-04-20 07:17 | -1.25678 | 122.62057 | 5440 ft | 259 kts | 39° |
| 2026-04-20 07:17 | -1.24266 | 122.63101 | 5088 ft | 246 kts | 34° |
| 2026-04-20 07:17 | -1.22861 | 122.64028 | 4774 ft | 241 kts | 33° |
| 2026-04-20 07:17 | -1.21455 | 122.64943 | 4416 ft | 241 kts | 33° |
| 2026-04-20 07:18 | -1.20046 | 122.65858 | 4087 ft | 241 kts | 33° |
| 2026-04-20 07:18 | -1.18651 | 122.66780 | 3776 ft | 239 kts | 35° |
| 2026-04-20 07:18 | -1.17283 | 122.67730 | 3426 ft | 238 kts | 36° |
| 2026-04-20 07:18 | -1.15966 | 122.68664 | 3083 ft | 227 kts | 36° |
| 2026-04-20 07:19 | -1.14708 | 122.69556 | 2753 ft | 217 kts | 36° |
| 2026-04-20 07:19 | -1.13499 | 122.70412 | 2451 ft | 209 kts | 36° |
| 2026-04-20 07:19 | -1.12331 | 122.71239 | 2155 ft | 201 kts | 36° |
| 2026-04-20 07:19 | -1.11224 | 122.72017 | 1859 ft | 189 kts | 35° |
| 2026-04-20 07:20 | -1.10183 | 122.72748 | 1597 ft | 176 kts | 35° |
| 2026-04-20 07:20 | -1.09212 | 122.73432 | 1345 ft | 164 kts | 36° |
| 2026-04-20 07:20 | -1.08328 | 122.74060 | 1158 ft | 151 kts | 36° |
| 2026-04-20 07:20 | -1.07495 | 122.74659 | 918 ft | 145 kts | 36° |
| 2026-04-20 07:21 | -1.06683 | 122.75243 | 676 ft | 143 kts | 36° |
| 2026-04-20 07:21 | -1.05869 | 122.75807 | 471 ft | 142 kts | 34° |
| 2026-04-20 07:21 | -1.05059 | 122.76369 | 273 ft | 141 kts | 35° |
| 2026-04-20 07:21 | -1.04253 | 122.76932 | 100 ft | 141 kts | 35° |
| 2026-04-20 07:22 | -1.03533 | 122.77437 | 74 ft | 106 kts | 34° |
| 2026-04-20 07:22 | -1.03069 | 122.77756 | 70 ft | 48 kts | 34° |
| 2026-04-20 07:22 | -1.02861 | 122.77900 | 69 ft | 30 kts | 34° |
| 2026-04-20 07:22 | -1.02742 | 122.77962 | 67 ft | 19 kts | 13° |
| 2026-04-20 07:23 | -1.02737 | 122.77989 | 69 ft | 9 kts | 201° |
| 2026-04-20 07:23 | -1.02817 | 122.77932 | 67 ft | 19 kts | 215° |
| 2026-04-20 07:23 | -1.02942 | 122.77844 | 69 ft | 24 kts | 215° |
| 2026-04-20 07:23 | -1.03085 | 122.77745 | 68 ft | 26 kts | 215° |
| 2026-04-20 07:24 | -1.03232 | 122.77641 | 72 ft | 26 kts | 215° |
| 2026-04-20 07:24 | -1.03385 | 122.77535 | 73 ft | 28 kts | 215° |
| 2026-04-20 07:24 | -1.03504 | 122.77451 | 77 ft | 21 kts | 215° |
| 2026-04-20 07:24 | -1.03630 | 122.77364 | 65 ft | 23 kts | 214° |
| 2026-04-20 07:25 | -1.03769 | 122.77269 | 73 ft | 19 kts | 214° |
| 2026-04-20 07:25 | -1.03853 | 122.77215 | 69 ft | 9 kts | 198° |
| 2026-04-20 07:25 | -1.03901 | 122.77238 | 67 ft | 8 kts | 129° |
| 2026-04-20 07:25 | -1.03941 | 122.77247 | 74 ft | 6 kts | 209° |
| 2026-04-20 07:26 | -1.03973 | 122.77233 | 74 ft | 4 kts | 171° |
| 2026-04-20 07:26 | -1.04001 | 122.77255 | 65 ft | 5 kts | 122° |
| 2026-04-20 07:26 | -1.04020 | 122.77257 | 74 ft | 3 kts | 228° |
| 2026-04-20 07:26 | -1.04021 | 122.77244 | 74 ft | 0 kts | 274° |